createdAt,value
2022-08-23T00:02:08.261Z,19.75
2022-08-23T00:04:56.905Z,19.73
2022-08-23T00:07:38.644Z,19.72
2022-08-23T00:10:11.786Z,19.70
2022-08-23T00:12:39.823Z,19.68
2022-08-23T00:15:09.705Z,19.65
2022-08-23T00:17:37.485Z,19.61
2022-08-23T00:20:07.037Z,19.56
2022-08-23T00:22:34.365Z,19.54
2022-08-23T00:25:01.293Z,19.52
2022-08-23T00:27:28.557Z,19.50
2022-08-23T00:29:57.373Z,19.48
2022-08-23T00:32:33.398Z,19.46
2022-08-23T00:35:02.203Z,19.42
2022-08-23T00:37:32.502Z,19.41
2022-08-23T00:40:00.988Z,19.39
2022-08-23T00:43:15.444Z,19.37
2022-08-23T00:46:32.372Z,19.34
2022-08-23T00:49:04.585Z,19.31
2022-08-23T00:51:53.216Z,19.30
2022-08-23T00:54:24.997Z,19.28
2022-08-23T00:56:54.797Z,19.26
2022-08-23T00:59:23.063Z,19.23
2022-08-23T01:01:51.007Z,19.22
2022-08-23T01:04:19.205Z,19.21
2022-08-23T01:07:01.221Z,19.21
2022-08-23T01:09:28.614Z,19.18
2022-08-23T01:12:31.125Z,19.16
2022-08-23T01:15:24.669Z,19.15
2022-08-23T01:18:02.452Z,19.14
2022-08-23T01:20:42.413Z,19.15
2022-08-23T01:23:43.252Z,19.14
2022-08-23T01:26:12.090Z,19.13
2022-08-23T01:28:40.912Z,19.13
2022-08-23T01:31:15.193Z,19.13
2022-08-23T01:33:45.840Z,19.14
2022-08-23T01:36:16.122Z,19.15
2022-08-23T01:38:43.568Z,19.15
2022-08-23T01:41:10.958Z,19.14
2022-08-23T01:43:37.878Z,19.14
2022-08-23T01:46:26.911Z,19.11
2022-08-23T01:48:55.570Z,19.10
2022-08-23T01:51:24.001Z,19.09
2022-08-23T01:53:51.942Z,19.09
2022-08-23T01:56:29.514Z,19.09
2022-08-23T01:59:10.450Z,19.09
2022-08-23T02:01:43.329Z,19.04
2022-08-23T02:04:10.274Z,19.02
2022-08-23T02:06:38.449Z,18.98
2022-08-23T02:09:17.218Z,18.95
2022-08-23T02:11:46.264Z,18.90
2022-08-23T02:14:20.238Z,18.88
2022-08-23T02:16:59.943Z,18.83
2022-08-23T02:19:33.674Z,18.81
2022-08-23T02:22:03.416Z,18.78
2022-08-23T02:24:31.529Z,18.76
2022-08-23T02:27:04.158Z,18.74
2022-08-23T02:29:38.382Z,18.73
2022-08-23T02:32:07.031Z,18.70
2022-08-23T02:34:37.593Z,18.67
2022-08-23T02:37:07.357Z,18.61
2022-08-23T02:39:35.535Z,18.57
2022-08-23T02:42:06.963Z,18.51
2022-08-23T02:44:35.601Z,18.45
2022-08-23T02:47:03.585Z,18.42
2022-08-23T02:49:30.465Z,18.39
2022-08-23T02:51:57.323Z,18.38
2022-08-23T02:54:24.807Z,18.47
2022-08-23T02:56:52.696Z,18.59
2022-08-23T02:59:19.726Z,18.64
2022-08-23T03:01:47.714Z,18.63
2022-08-23T03:04:27.377Z,18.54
2022-08-23T03:06:54.953Z,18.40
2022-08-23T03:09:22.071Z,18.24
2022-08-23T03:11:50.659Z,18.12
2022-08-23T03:14:19.633Z,17.99
2022-08-23T03:16:46.913Z,17.86
2022-08-23T03:19:14.095Z,17.79
2022-08-23T03:21:43.312Z,17.76
2022-08-23T03:24:11.997Z,17.74
2022-08-23T03:26:45.884Z,17.77
2022-08-23T03:29:15.012Z,17.80
2022-08-23T03:32:02.945Z,17.83
2022-08-23T03:34:34.750Z,17.86
2022-08-23T03:37:01.985Z,17.88
2022-08-23T03:39:29.184Z,17.92
2022-08-23T03:41:59.024Z,17.89
2022-08-23T03:44:31.280Z,17.90
2022-08-23T03:46:58.097Z,17.90
2022-08-23T03:49:27.048Z,17.93
2022-08-23T03:51:56.109Z,17.96
2022-08-23T03:54:23.129Z,17.98
2022-08-23T03:57:03.086Z,18.00
2022-08-23T03:59:37.253Z,18.02
2022-08-23T04:02:08.907Z,18.01
2022-08-23T04:04:36.097Z,18.02
2022-08-23T04:07:22.217Z,18.05
2022-08-23T04:09:55.288Z,18.03
2022-08-23T04:12:25.045Z,18.02
2022-08-23T04:14:53.495Z,17.99
2022-08-23T04:17:24.257Z,18.00
2022-08-23T04:19:52.976Z,18.03
2022-08-23T04:22:20.889Z,18.07
2022-08-23T04:24:48.767Z,18.11
2022-08-23T04:27:17.019Z,18.14
2022-08-23T04:29:45.499Z,18.15
2022-08-23T04:32:12.714Z,18.16
2022-08-23T04:34:45.648Z,18.16
2022-08-23T04:37:15.060Z,18.18
2022-08-23T04:40:01.398Z,18.19
2022-08-23T04:42:35.364Z,18.23
2022-08-23T04:45:02.423Z,18.25
2022-08-23T04:47:29.641Z,18.29
2022-08-23T04:49:59.536Z,18.31
2022-08-23T04:52:26.379Z,18.33
2022-08-23T04:54:53.766Z,18.31
2022-08-23T04:57:39.710Z,18.26
2022-08-23T05:00:07.629Z,18.24
2022-08-23T05:02:36.150Z,18.25
2022-08-23T05:05:03.957Z,18.27
2022-08-23T05:07:42.717Z,18.33
2022-08-23T05:10:15.165Z,18.38
2022-08-23T05:12:46.207Z,18.40
2022-08-23T05:15:14.182Z,18.43
2022-08-23T05:17:45.850Z,18.45
2022-08-23T05:20:13.029Z,18.46
2022-08-23T05:22:42.465Z,18.54
2022-08-23T05:25:21.125Z,18.63
2022-08-23T05:27:50.109Z,18.72
2022-08-23T05:30:16.994Z,18.79
2022-08-23T05:32:44.389Z,18.85
2022-08-23T05:35:12.770Z,18.88
2022-08-23T05:37:43.179Z,18.86
2022-08-23T05:40:11.933Z,18.87
2022-08-23T05:42:49.593Z,18.91
2022-08-23T05:45:21.747Z,18.96
2022-08-23T05:47:49.882Z,19.01
2022-08-23T05:50:26.197Z,19.08
2022-08-23T05:52:53.123Z,19.16
2022-08-23T05:55:21.894Z,19.21
2022-08-23T05:58:09.904Z,19.33
2022-08-23T06:00:40.604Z,19.43
2022-08-23T06:03:09.167Z,19.54
2022-08-23T06:05:40.763Z,19.67
2022-08-23T06:08:08.149Z,19.75
2022-08-23T06:10:40.494Z,19.82
2022-08-23T06:13:43.778Z,19.88
2022-08-23T06:16:15.105Z,19.98
2022-08-23T06:18:44.551Z,20.07
2022-08-23T06:21:32.459Z,20.16
2022-08-23T06:23:59.762Z,20.26
2022-08-23T06:26:32.123Z,20.35
2022-08-23T06:29:06.090Z,20.46
2022-08-23T06:31:50.047Z,20.53
2022-08-23T06:34:35.053Z,20.63
2022-08-23T06:37:22.908Z,20.75
2022-08-23T06:40:05.150Z,20.89
2022-08-23T06:42:50.465Z,21.05
2022-08-23T06:45:30.279Z,21.18
2022-08-23T06:48:02.635Z,21.33
2022-08-23T06:50:32.446Z,21.47
2022-08-23T06:53:18.318Z,21.66
2022-08-23T06:55:57.702Z,21.75
2022-08-23T06:58:34.856Z,21.75
2022-08-23T07:01:44.519Z,21.73
2022-08-23T07:04:30.566Z,21.76
2022-08-23T07:07:16.232Z,21.75
2022-08-23T07:09:43.073Z,21.72
2022-08-23T07:12:11.534Z,21.71
2022-08-23T07:14:42.485Z,21.72
2022-08-23T07:17:09.690Z,21.73
2022-08-23T07:19:37.145Z,21.76
2022-08-23T07:22:06.091Z,21.81
2022-08-23T07:24:34.057Z,21.86
2022-08-23T07:27:07.132Z,22.08
2022-08-23T07:29:39.551Z,22.17
2022-08-23T07:32:07.330Z,22.25
2022-08-23T07:34:36.066Z,22.45
2022-08-23T07:37:04.371Z,22.99
2022-08-23T07:39:38.208Z,23.70
2022-08-23T07:42:23.568Z,24.26
2022-08-23T07:44:54.150Z,24.75
2022-08-23T07:47:23.315Z,25.14
2022-08-23T07:49:51.829Z,25.48
2022-08-23T07:52:18.751Z,25.78
2022-08-23T07:54:48.665Z,26.07
2022-08-23T07:57:31.369Z,26.29
2022-08-23T08:00:21.256Z,26.30
2022-08-23T08:02:59.538Z,26.13
2022-08-23T08:05:35.193Z,26.19
2022-08-23T08:08:04.939Z,26.39
2022-08-23T08:10:32.352Z,26.57
2022-08-23T08:12:59.334Z,26.71
2022-08-23T08:15:26.586Z,26.75
2022-08-23T08:18:02.435Z,26.61
2022-08-23T08:20:54.656Z,26.50
2022-08-23T08:23:41.717Z,26.66
2022-08-23T08:26:37.409Z,26.81
2022-08-23T08:29:05.818Z,26.72
2022-08-23T08:31:38.338Z,26.54
2022-08-23T08:34:07.831Z,26.55
2022-08-23T08:36:44.046Z,26.64
2022-08-23T08:39:24.537Z,26.66
2022-08-23T08:42:31.564Z,26.72
2022-08-23T08:45:06.404Z,26.87
2022-08-23T08:47:47.375Z,26.79
2022-08-23T08:50:24.284Z,26.62
2022-08-23T08:53:03.759Z,26.45
2022-08-23T08:55:59.274Z,26.38
2022-08-23T08:58:48.497Z,26.49
2022-08-23T09:01:18.346Z,26.57
2022-08-23T09:03:46.211Z,26.86
2022-08-23T09:06:34.245Z,27.26
2022-08-23T09:10:09.938Z,27.53
2022-08-23T09:13:19.809Z,27.46
2022-08-23T09:16:28.796Z,27.35
2022-08-23T09:18:57.136Z,27.27
2022-08-23T09:21:24.897Z,27.44
2022-08-23T09:24:00.383Z,27.53
2022-08-23T09:26:41.073Z,27.35
2022-08-23T09:29:19.710Z,27.21
2022-08-23T09:31:55.809Z,27.16
2022-08-23T09:34:36.230Z,27.16
2022-08-23T09:37:11.901Z,27.20
2022-08-23T09:39:43.814Z,27.32
2022-08-23T09:42:32.290Z,27.45
2022-08-23T09:45:01.228Z,27.46
2022-08-23T09:47:44.730Z,27.22
2022-08-23T09:50:26.781Z,27.17
2022-08-23T09:53:12.152Z,27.18
2022-08-23T09:55:49.942Z,27.24
2022-08-23T09:58:38.517Z,27.26
2022-08-23T10:01:23.766Z,27.32
2022-08-23T10:04:15.874Z,27.55
2022-08-23T10:06:46.316Z,27.84
2022-08-23T10:09:33.821Z,28.00
2022-08-23T10:12:04.809Z,28.13
2022-08-23T10:14:34.816Z,28.13
2022-08-23T10:17:43.905Z,28.20
2022-08-23T10:20:30.315Z,28.25
2022-08-23T10:23:35.532Z,28.51
2022-08-23T10:26:02.738Z,28.71
2022-08-23T10:29:12.954Z,28.71
2022-08-23T10:31:59.323Z,28.41
2022-08-23T10:35:15.110Z,28.31
2022-08-23T10:38:03.226Z,28.11
2022-08-23T10:40:52.105Z,28.05
2022-08-23T10:43:43.961Z,28.01
2022-08-23T10:46:11.756Z,28.06
2022-08-23T10:48:57.037Z,28.11
2022-08-23T10:51:33.035Z,28.25
2022-08-23T10:54:18.813Z,28.37
2022-08-23T10:56:51.098Z,28.48
2022-08-23T10:59:26.135Z,28.50
2022-08-23T11:02:42.837Z,28.41
2022-08-23T11:05:29.050Z,28.48
2022-08-23T11:08:06.070Z,28.66
2022-08-23T11:10:56.192Z,28.71
2022-08-23T11:13:32.130Z,28.64
2022-08-23T11:16:10.107Z,28.69
2022-08-23T11:18:48.669Z,28.84
2022-08-23T11:21:25.715Z,29.06
2022-08-23T11:24:00.184Z,29.24
2022-08-23T11:26:36.270Z,29.41
2022-08-23T11:29:06.196Z,29.67
2022-08-23T11:32:11.294Z,29.92
2022-08-23T11:35:31.089Z,30.05
2022-08-23T11:38:04.829Z,30.03
2022-08-23T11:40:52.339Z,29.94
2022-08-23T11:43:32.754Z,29.89
2022-08-23T11:46:27.716Z,29.97
2022-08-23T11:49:26.108Z,30.01
2022-08-23T11:52:06.010Z,29.95
2022-08-23T11:54:44.720Z,30.07
2022-08-23T11:57:33.109Z,30.09
2022-08-23T12:00:28.982Z,30.20
2022-08-23T12:03:02.438Z,30.34
2022-08-23T12:05:38.579Z,30.56
2022-08-23T12:08:08.158Z,30.82
2022-08-23T12:10:40.671Z,30.93
2022-08-23T12:13:19.673Z,31.00
2022-08-23T12:16:16.925Z,31.23
2022-08-23T12:18:49.911Z,31.22
2022-08-23T12:21:47.380Z,31.27
2022-08-23T12:24:32.653Z,31.28
2022-08-23T12:27:07.205Z,31.26
2022-08-23T12:30:11.795Z,31.30
2022-08-23T12:32:59.010Z,30.91
2022-08-23T12:35:46.779Z,30.56
2022-08-23T12:38:41.009Z,30.54
2022-08-23T12:41:59.032Z,30.66
2022-08-23T12:44:29.323Z,30.74
2022-08-23T12:47:08.861Z,30.65
2022-08-23T12:49:36.441Z,30.52
2022-08-23T12:52:11.936Z,30.63
2022-08-23T12:54:50.259Z,30.87
2022-08-23T12:57:37.778Z,31.15
2022-08-23T13:00:16.983Z,31.41
2022-08-23T13:02:57.285Z,31.81
2022-08-23T13:05:36.124Z,31.87
2022-08-23T13:08:10.968Z,31.81
2022-08-23T13:10:42.657Z,31.81
2022-08-23T13:13:13.710Z,31.88
2022-08-23T13:16:03.752Z,31.81
2022-08-23T13:18:45.853Z,31.35
2022-08-23T13:21:31.940Z,31.32
2022-08-23T13:24:43.844Z,31.51
2022-08-23T13:27:51.335Z,31.66
2022-08-23T13:30:19.685Z,31.93
2022-08-23T13:32:51.290Z,32.21
2022-08-23T13:35:49.580Z,32.74
2022-08-23T13:38:41.880Z,33.09
2022-08-23T13:41:26.303Z,33.04
2022-08-23T13:43:54.874Z,32.90
2022-08-23T13:46:31.979Z,32.91
2022-08-23T13:49:11.898Z,33.02
2022-08-23T13:51:42.993Z,32.98
2022-08-23T13:54:15.872Z,33.27
2022-08-23T13:56:51.178Z,33.46
2022-08-23T13:59:35.822Z,33.45
2022-08-23T14:02:08.807Z,33.29
2022-08-23T14:04:35.690Z,33.18
2022-08-23T14:07:02.739Z,33.15
2022-08-23T14:09:29.613Z,33.16
2022-08-23T14:12:04.049Z,32.74
2022-08-23T14:14:34.686Z,32.22
2022-08-23T14:17:03.201Z,31.82
2022-08-23T14:22:19.238Z,31.26
2022-08-23T14:24:46.261Z,31.08
2022-08-23T14:27:13.247Z,30.84
2022-08-23T14:29:40.260Z,30.63
2022-08-23T14:32:07.176Z,30.69
2022-08-23T14:34:34.033Z,31.11
2022-08-23T14:39:48.064Z,31.91
2022-08-23T14:42:20.769Z,32.12
2022-08-23T14:44:48.087Z,32.13
2022-08-23T14:47:14.930Z,31.92
2022-08-23T14:49:41.819Z,31.70
2022-08-23T14:52:09.383Z,31.38
2022-08-23T14:54:36.886Z,31.36
2022-08-23T14:57:04.104Z,31.66
2022-08-23T14:59:30.964Z,31.60
2022-08-23T15:01:58.780Z,31.50
2022-08-23T15:04:34.143Z,31.55
2022-08-23T15:07:19.748Z,31.44
2022-08-23T15:09:50.429Z,31.39
2022-08-23T15:15:12.847Z,31.23
2022-08-23T15:17:54.296Z,31.02
2022-08-23T15:20:26.552Z,31.15
2022-08-23T15:22:56.137Z,31.44
2022-08-23T15:25:25.329Z,31.85
2022-08-23T15:27:52.686Z,32.31
2022-08-23T15:30:19.859Z,32.93
2022-08-23T15:32:52.230Z,33.11
2022-08-23T15:35:22.561Z,33.12
2022-08-23T15:37:49.920Z,33.11
2022-08-23T15:40:16.972Z,33.00
2022-08-23T15:42:43.906Z,32.96
2022-08-23T15:45:11.626Z,33.05
2022-08-23T15:47:51.586Z,33.25
2022-08-23T15:50:23.266Z,33.42
2022-08-23T15:52:50.949Z,33.51
2022-08-23T15:55:19.022Z,33.60
2022-08-23T15:57:50.613Z,33.59
2022-08-23T16:00:25.523Z,33.55
2022-08-23T16:03:19.229Z,33.49
2022-08-23T16:05:44.348Z,33.50
2022-08-23T16:08:28.031Z,33.41
2022-08-23T16:10:56.595Z,33.43
2022-08-23T16:13:25.546Z,33.61
2022-08-23T16:15:53.441Z,33.64
2022-08-23T16:18:20.515Z,33.38
2022-08-23T16:20:47.327Z,33.22
2022-08-23T16:23:14.209Z,33.16
2022-08-23T16:25:42.330Z,33.09
2022-08-23T16:28:09.572Z,33.04
2022-08-23T16:30:37.132Z,32.94
2022-08-23T16:33:04.515Z,32.79
2022-08-23T16:35:31.368Z,32.77
2022-08-23T16:37:58.249Z,32.75
2022-08-23T16:40:25.271Z,32.64
2022-08-23T16:42:52.805Z,32.43
2022-08-23T16:45:26.073Z,32.18
2022-08-23T16:47:54.062Z,31.95
2022-08-23T16:50:21.004Z,31.80
2022-08-23T16:52:47.903Z,31.72
2022-08-23T16:55:14.721Z,31.75
2022-08-23T16:57:42.109Z,31.73
2022-08-23T17:00:14.772Z,31.66
2022-08-23T17:02:43.887Z,31.53
2022-08-23T17:05:16.032Z,31.45
2022-08-23T17:07:43.520Z,31.48
2022-08-23T17:10:14.128Z,31.54
2022-08-23T17:12:47.107Z,31.56
2022-08-23T17:15:20.295Z,31.54
2022-08-23T17:17:48.474Z,31.39
2022-08-23T17:20:18.154Z,31.27
2022-08-23T17:22:46.013Z,31.03
2022-08-23T17:25:15.100Z,30.81
2022-08-23T17:27:46.187Z,30.61
2022-08-23T17:30:16.793Z,30.35
2022-08-23T17:32:45.061Z,30.10
2022-08-23T17:35:15.001Z,29.93
2022-08-23T17:37:42.528Z,29.75
2022-08-23T17:40:15.901Z,29.58
2022-08-23T17:42:43.878Z,29.37
2022-08-23T17:45:11.831Z,29.22
2022-08-23T17:47:39.200Z,29.07
2022-08-23T17:50:09.068Z,28.94
2022-08-23T17:52:35.990Z,28.85
2022-08-23T17:55:02.913Z,28.75
2022-08-23T17:57:30.394Z,28.69
2022-08-23T18:00:00.503Z,28.64
2022-08-23T18:02:27.446Z,28.59
2022-08-23T18:04:54.344Z,28.57
2022-08-23T18:07:21.840Z,28.52
2022-08-23T18:09:48.953Z,28.46
2022-08-23T18:12:16.627Z,28.41
2022-08-23T18:14:43.767Z,28.38
2022-08-23T18:17:10.619Z,28.35
2022-08-23T18:19:37.499Z,28.28
2022-08-23T18:22:04.421Z,28.23
2022-08-23T18:24:31.932Z,28.16
2022-08-23T18:27:21.211Z,28.10
2022-08-23T18:29:51.387Z,28.02
2022-08-23T18:32:19.210Z,27.95
2022-08-23T18:34:46.525Z,27.90
2022-08-23T18:37:16.898Z,27.84
2022-08-23T18:39:44.515Z,27.79
2022-08-23T18:42:12.118Z,27.73
2022-08-23T18:44:39.053Z,27.68
2022-08-23T18:47:06.157Z,27.62
2022-08-23T18:49:35.955Z,27.54
2022-08-23T18:52:03.172Z,27.48
2022-08-23T18:54:33.637Z,27.41
2022-08-23T18:57:01.228Z,27.32
2022-08-23T18:59:28.197Z,27.23
2022-08-23T19:01:55.963Z,27.19
2022-08-23T19:04:23.067Z,27.13
2022-08-23T19:06:49.923Z,27.01
2022-08-23T19:09:21.821Z,26.88
2022-08-23T19:11:50.163Z,26.78
2022-08-23T19:14:17.517Z,26.72
2022-08-23T19:16:48.198Z,26.65
2022-08-23T19:19:16.935Z,26.61
2022-08-23T19:21:43.911Z,26.55
2022-08-23T19:24:10.835Z,26.50
2022-08-23T19:26:38.179Z,26.45
2022-08-23T19:29:09.187Z,26.40
2022-08-23T19:31:42.631Z,26.36
2022-08-23T19:34:11.381Z,26.30
2022-08-23T19:36:48.321Z,26.24
2022-08-23T19:39:19.200Z,26.15
2022-08-23T19:41:48.633Z,26.09
2022-08-23T19:44:17.731Z,26.04
2022-08-23T19:46:45.655Z,26.01
2022-08-23T19:49:14.941Z,25.95
2022-08-23T19:51:43.614Z,25.89
2022-08-23T19:54:12.843Z,25.83
2022-08-23T19:56:49.089Z,25.79
2022-08-23T19:59:21.332Z,25.73
2022-08-23T20:01:50.848Z,25.69
2022-08-23T20:04:19.820Z,25.66
2022-08-23T20:06:48.707Z,25.62
2022-08-23T20:09:16.228Z,25.56
2022-08-23T20:11:43.651Z,25.53
2022-08-23T20:14:11.203Z,25.49
2022-08-23T20:16:38.997Z,25.45
2022-08-23T20:19:10.749Z,25.41
2022-08-23T20:21:39.848Z,25.38
2022-08-23T20:24:14.340Z,25.31
2022-08-23T20:26:45.516Z,25.26
2022-08-23T20:29:20.097Z,25.22
2022-08-23T20:31:54.905Z,25.15
2022-08-23T20:34:23.404Z,25.10
2022-08-23T20:36:55.923Z,25.04
2022-08-23T20:39:24.178Z,24.97
2022-08-23T20:41:53.041Z,24.92
2022-08-23T20:44:21.651Z,24.87
2022-08-23T20:46:53.707Z,24.84
2022-08-23T20:49:22.515Z,24.79
2022-08-23T20:51:50.281Z,24.74
2022-08-23T20:54:18.409Z,24.67
2022-08-23T20:56:45.777Z,24.61
2022-08-23T20:59:14.622Z,24.53
2022-08-23T21:01:41.651Z,24.45
2022-08-23T21:04:08.582Z,24.38
2022-08-23T21:06:53.658Z,24.32
2022-08-23T21:09:24.610Z,24.25
2022-08-23T21:11:55.842Z,24.16
2022-08-23T21:14:23.036Z,24.11
2022-08-23T21:16:49.915Z,24.05
2022-08-23T21:19:17.268Z,24.01
2022-08-23T21:21:44.429Z,23.95
2022-08-23T21:24:12.000Z,23.87
2022-08-23T21:26:39.974Z,23.80
2022-08-23T21:29:09.469Z,23.73
2022-08-23T21:31:37.117Z,23.68
2022-08-23T21:34:04.722Z,23.63
2022-08-23T21:36:31.661Z,23.57
2022-08-23T21:38:58.544Z,23.52
2022-08-23T21:41:41.129Z,23.50
2022-08-23T21:44:15.790Z,23.42
2022-08-23T21:46:43.621Z,23.35
2022-08-23T21:49:12.514Z,23.28
2022-08-23T21:51:41.658Z,23.23
2022-08-23T21:54:12.231Z,23.19
2022-08-23T21:56:40.728Z,23.13
2022-08-23T21:59:12.894Z,23.12
2022-08-23T22:01:41.468Z,23.10
2022-08-23T22:04:11.671Z,23.07
2022-08-23T22:06:40.525Z,23.03
2022-08-23T22:09:10.518Z,23.00
2022-08-23T22:11:40.607Z,22.96
2022-08-23T22:14:11.020Z,22.88
2022-08-23T22:16:38.153Z,22.81
2022-08-23T22:19:05.219Z,22.78
2022-08-23T22:21:35.521Z,22.74
2022-08-23T22:24:02.881Z,22.72
2022-08-23T22:26:30.087Z,22.69
2022-08-23T22:28:57.147Z,22.68
2022-08-23T22:31:24.610Z,22.67
2022-08-23T22:33:52.874Z,22.66
2022-08-23T22:36:22.656Z,22.66
2022-08-23T22:38:51.460Z,22.66
2022-08-23T22:41:27.215Z,22.65
2022-08-23T22:43:55.962Z,22.64
2022-08-23T22:46:23.794Z,22.62
2022-08-23T22:48:50.758Z,22.62
2022-08-23T22:51:23.402Z,22.65
2022-08-23T22:53:54.527Z,22.63
2022-08-23T22:56:28.140Z,22.63
2022-08-23T22:58:55.302Z,22.60
2022-08-23T23:01:28.163Z,22.58
2022-08-23T23:03:58.532Z,22.55
2022-08-23T23:06:26.418Z,22.53
2022-08-23T23:08:54.288Z,22.52
2022-08-23T23:11:22.350Z,22.48
2022-08-23T23:13:50.092Z,22.41
2022-08-23T23:16:22.163Z,22.34
2022-08-23T23:19:08.912Z,22.23
2022-08-23T23:21:43.171Z,22.11
2022-08-23T23:24:13.902Z,22.00
2022-08-23T23:26:41.784Z,21.90
2022-08-23T23:29:14.888Z,21.83
2022-08-23T23:31:42.035Z,21.78
2022-08-23T23:34:09.068Z,21.72
2022-08-23T23:36:37.533Z,21.69
2022-08-23T23:39:07.299Z,21.65
2022-08-23T23:41:34.540Z,21.61
2022-08-23T23:44:02.046Z,21.53
2022-08-23T23:46:29.013Z,21.49
2022-08-23T23:48:56.073Z,21.44
2022-08-23T23:51:27.936Z,21.42
2022-08-23T23:53:56.961Z,21.39
2022-08-23T23:56:27.700Z,21.35
2022-08-23T23:58:56.624Z,21.31
